Little Rock, AR (72212)

4:46 PM CDT on August 31, 2016 (GMT -0500)
Pleasant Forest (TCA by AVIAS) | | Change Station

Elev 538 ft 34.79 °N, 92.42 °W | Updated 3 seconds ago

Scattered Clouds
Scattered Clouds
91.6 °F
Feels Like 101 °F
N
0.4
Wind Variable Wind from NW
Gusts 2.5 mph

Today
High -- | Low -- °F
--% Chance of Precip.
Yesterday
High -- | Low -- °F
Precip. -- in
Pressure 29.93 in
Visibility 10.0 miles
Clouds Scattered Clouds 5000 ft
Scattered Clouds 25000 ft
Heat Index 101 °F
Dew Point 74 °F
Humidity 56%
Rainfall 0.00 in
Snow Depth Not available.
6:42 AM 7:36 PM
Waning Crescent, 0% visible
METAR KLIT 312053Z 03005KT 10SM SCT050 SCT250 36/22 A2993 RMK AO2 SLP135 T03560222 57019
Pressure 29.93 in
Visibility 10.0 miles
Clouds Scattered Clouds 5000 ft
Scattered Clouds 25000 ft
Heat Index 101 °F
Dew Point 74 °F
Humidity 56%
Rainfall 0.00 in
Snow Depth Not available.
6:42 AM 7:36 PM
Waning Crescent, 0% visible
METAR KLIT 312053Z 03005KT 10SM SCT050 SCT250 36/22 A2993 RMK AO2 SLP135 T03560222 57019

10-Day Weather Forecast

Almanac

Astronomy

Aug. 31, 2016 Rise Set
Actual Time
Civil Twilight
Nautical Twilight
Astronomical Twilight
Moon
Length of Visible Light
Length of Day
Tomorrow will be .
, % of the Moon is Illuminated

Today's Extremes

State Highs State Lows

Community

WunderPhotos

Upload Photos

1,936,189 photos uploaded!

WunderBlog® & News

Nearby

Air Quality

  Air Quality AQ Index Pollutant
Not available.

Snow Depth

Station Depth Elevation

Earthquake Activity

City Distance Mag. Time & Date
Minimum magnitude displayed is 2.5.

Coastal Water Temperatures

Place Temperature

Stations

Nearby Weather Stations

Station Location Temp. Windchill Dew Point Humidity Wind Precip. Elev Updated Type
                   

Watches & Warnings

There are currently no watches in effect.